Webcam Richtung Westen

Webcam27

Webcam Richtung Norden

Webcam36

Webcam Richtung Osten

Webcam09

Wetter(Würzburg):
171230Z AUTO 23005G06KT 22KM -RA BKN038 BKN047 08/06 Q1017
		
Mon 17.02.2020, 12:30 UTC

Sichtweite bis zu 22 km
schwacher Regen
Wind aus 230° mit 05kt, in Böen bis zu 06kt
unterbrochene Wolkendecke (5-7 Achtel) bei 3800 Fuß
unterbrochene Wolkendecke (5-7 Achtel) bei 4700 Fuß
Temperatur: 8 °C
Taupunkt: 6 °C
QNH: 1017 hPa
                         Heute        Morgen
                         17.02        18.02
--------------------------------------------
Beginn der Dämmerung     05:55        05:53
Sonnenaufgang            06:28        06:26
Sonnenuntergang          16:40        16:42
Ende der Dämmerung       17:13        17:15

Alle Zeiten in UTC